createdAt,value
2023-05-06T00:03:28.310Z,100
2023-05-06T00:08:28.190Z,100
2023-05-06T00:13:28.175Z,100
2023-05-06T00:18:28.173Z,100
2023-05-06T00:23:28.198Z,100
2023-05-06T00:28:28.180Z,100
2023-05-06T00:33:28.180Z,100
2023-05-06T01:28:28.111Z,100
2023-05-06T01:33:28.100Z,100
2023-05-06T01:48:28.093Z,100
2023-05-06T01:58:28.076Z,100
2023-05-06T02:03:28.240Z,100
2023-05-06T02:13:28.058Z,100
2023-05-06T02:38:28.032Z,100
2023-05-06T02:53:28.020Z,100
2023-05-06T02:58:28.018Z,100
2023-05-06T03:03:28.019Z,100
2023-05-06T03:08:28.004Z,100
2023-05-06T03:13:27.992Z,100
2023-05-06T03:18:28.011Z,100
2023-05-06T03:33:27.968Z,100
2023-05-06T03:38:27.996Z,100
2023-05-06T03:43:27.981Z,100
2023-05-06T03:48:27.992Z,100
2023-05-06T03:53:27.970Z,100
2023-05-06T03:58:27.944Z,100
2023-05-06T04:03:27.973Z,100
2023-05-06T04:08:27.967Z,100
2023-05-06T04:13:27.933Z,100
2023-05-06T04:18:27.936Z,100
2023-05-06T04:23:27.932Z,100
2023-05-06T04:28:27.992Z,100
2023-05-06T04:33:27.937Z,100
2023-05-06T04:38:27.913Z,100
2023-05-06T04:43:27.932Z,100
2023-05-06T04:48:27.911Z,100
2023-05-06T04:53:27.926Z,100
2023-05-06T04:58:27.905Z,100
2023-05-06T05:03:27.923Z,100
2023-05-06T05:08:27.898Z,100
2023-05-06T05:13:27.884Z,100
2023-05-06T05:18:27.890Z,100
2023-05-06T05:23:27.880Z,100
2023-05-06T05:28:27.850Z,100
2023-05-06T05:33:27.870Z,100
2023-05-06T05:38:27.855Z,100
2023-05-06T05:43:27.855Z,100
2023-05-06T05:48:27.840Z,100
2023-05-06T05:53:27.854Z,100
2023-05-06T05:58:27.845Z,100
2023-05-06T06:03:27.869Z,100
2023-05-06T06:08:27.829Z,97.8
2023-05-06T06:13:28.881Z,95.7
2023-05-06T06:18:27.817Z,91.9
2023-05-06T06:23:27.809Z,93.7
2023-05-06T06:28:27.798Z,91.8
2023-05-06T06:33:27.778Z,92.4
2023-05-06T06:38:27.765Z,92.4
2023-05-06T06:43:27.760Z,92.3
2023-05-06T06:48:27.772Z,92.8
2023-05-06T06:53:27.755Z,91.4
2023-05-06T06:58:27.759Z,91.9
2023-05-06T07:03:27.772Z,92.2
2023-05-06T07:08:27.749Z,92.2
2023-05-06T07:13:27.748Z,90.8
2023-05-06T07:18:27.742Z,91.3
2023-05-06T07:23:28.285Z,90.5
2023-05-06T07:28:27.715Z,90.7
2023-05-06T07:33:27.728Z,89.9
2023-05-06T07:38:28.797Z,90.1
2023-05-06T07:43:27.704Z,88.8
2023-05-06T07:48:27.704Z,87.7
2023-05-06T07:53:27.685Z,85.8
2023-05-06T07:58:27.681Z,83.6
2023-05-06T08:03:27.831Z,83.3
2023-05-06T08:08:27.672Z,81.3
2023-05-06T08:13:27.654Z,81.3
2023-05-06T08:18:27.669Z,81.3
2023-05-06T08:23:27.658Z,78.9
2023-05-06T08:28:27.652Z,80
2023-05-06T08:33:27.647Z,80.1
2023-05-06T08:38:27.653Z,79
2023-05-06T08:43:27.621Z,78.5
2023-05-06T08:48:27.613Z,78.6
2023-05-06T08:53:27.623Z,79.5
2023-05-06T08:58:27.616Z,78.7
2023-05-06T09:03:27.689Z,78.6
2023-05-06T09:08:27.630Z,78.6
2023-05-06T09:13:27.595Z,78.7
2023-05-06T09:18:27.583Z,79.1
2023-05-06T09:23:27.604Z,75.8
2023-05-06T09:28:27.564Z,76.2
2023-05-06T09:33:27.562Z,75.5
2023-05-06T09:38:27.573Z,74.1
2023-05-06T09:43:27.552Z,73
2023-05-06T09:48:27.580Z,71.4
2023-05-06T09:53:27.544Z,72.4
2023-05-06T09:58:27.536Z,74.5
2023-05-06T10:03:27.629Z,73.3
2023-05-06T10:08:27.523Z,73.1
2023-05-06T10:13:27.517Z,69.8
2023-05-06T10:18:27.513Z,68.5
2023-05-06T10:23:27.506Z,70.7
2023-05-06T10:28:30.733Z,70.2
2023-05-06T10:33:27.507Z,68.9
2023-05-06T10:38:27.456Z,69.5
2023-05-06T10:43:27.474Z,68
2023-05-06T10:48:27.479Z,70.1
2023-05-06T10:53:27.470Z,70.1
2023-05-06T10:58:27.426Z,70.1
2023-05-06T11:03:27.459Z,70.5
2023-05-06T11:08:27.433Z,70.8
2023-05-06T11:13:27.767Z,70
2023-05-06T11:18:27.419Z,67.2
2023-05-06T11:23:27.418Z,69.1
2023-05-06T11:28:27.414Z,68.7
2023-05-06T11:33:27.419Z,67.4
2023-05-06T11:38:27.389Z,67.5
2023-05-06T11:43:27.396Z,67.8
2023-05-06T11:48:27.383Z,66.5
2023-05-06T11:53:27.372Z,65.3
2023-05-06T11:58:27.425Z,65.2
2023-05-06T12:03:27.594Z,63
2023-05-06T12:08:28.422Z,61.4
2023-05-06T12:13:27.401Z,62.5
2023-05-06T12:18:27.346Z,63
2023-05-06T12:23:27.310Z,62.2
2023-05-06T12:28:27.354Z,59.4
2023-05-06T12:33:27.319Z,59.2
2023-05-06T12:38:27.331Z,59.6
2023-05-06T12:43:27.321Z,59.2
2023-05-06T12:48:27.305Z,58
2023-05-06T12:53:27.293Z,57
2023-05-06T12:58:27.299Z,58.9
2023-05-06T13:03:27.526Z,59.6
2023-05-06T13:08:27.294Z,60.9
2023-05-06T13:13:27.262Z,60.9
2023-05-06T13:18:27.271Z,60.6
2023-05-06T13:23:27.279Z,58.2
2023-05-06T13:28:27.238Z,56
2023-05-06T13:33:27.275Z,55.5
2023-05-06T13:38:27.240Z,55.1
2023-05-06T13:43:27.257Z,54.3
2023-05-06T13:48:27.224Z,56.9
2023-05-06T13:53:27.217Z,57.9
2023-05-06T13:58:27.208Z,59.3
2023-05-06T14:03:27.201Z,59.8
2023-05-06T14:08:27.223Z,58.9
2023-05-06T14:13:27.269Z,56.5
2023-05-06T14:23:27.202Z,58.4
2023-05-06T14:33:27.168Z,57.7
2023-05-06T14:38:27.169Z,58.9
2023-05-06T14:43:27.154Z,58.4
2023-05-06T14:48:27.157Z,57.2
2023-05-06T14:58:27.126Z,56
2023-05-06T15:03:27.126Z,58.3
2023-05-06T15:08:27.124Z,58.6
2023-05-06T15:13:27.105Z,58.4
2023-05-06T15:18:27.124Z,59.6
2023-05-06T15:23:27.111Z,58.3
2023-05-06T15:28:27.086Z,57.7
2023-05-06T15:33:27.080Z,57.4
2023-05-06T15:58:27.040Z,57.8
2023-05-06T16:13:27.026Z,59.4
2023-05-06T16:18:27.021Z,59.8
2023-05-06T16:23:27.004Z,59.5
2023-05-06T16:33:27.007Z,62.1
2023-05-06T16:38:26.993Z,61.4
2023-05-06T16:43:26.976Z,62.6
2023-05-06T16:58:26.968Z,69.6
2023-05-06T17:03:26.988Z,70.1
2023-05-06T17:08:27.216Z,70.3
2023-05-06T17:23:26.917Z,65.5
2023-05-06T17:33:26.919Z,69.6
2023-05-06T17:38:26.908Z,73.2
2023-05-06T17:43:26.894Z,74.1
2023-05-06T17:48:26.906Z,75.2
2023-05-06T18:18:26.850Z,81
2023-05-06T18:23:26.853Z,82.1
2023-05-06T18:28:26.844Z,84.1
2023-05-06T18:38:26.843Z,82.3
2023-05-06T18:43:26.816Z,84.4
2023-05-06T18:48:26.824Z,85.3
2023-05-06T18:53:26.806Z,85.6
2023-05-06T18:58:26.795Z,87.4
2023-05-06T19:03:26.835Z,87.6
2023-05-06T19:13:26.804Z,89.3
2023-05-06T19:18:26.809Z,89.5
2023-05-06T19:23:26.834Z,90.4
2023-05-06T19:28:26.777Z,91
2023-05-06T19:33:26.791Z,91.4
2023-05-06T19:38:26.771Z,92
2023-05-06T19:43:26.761Z,92.7
2023-05-06T19:48:26.776Z,93.7
2023-05-06T19:53:26.755Z,94.6
2023-05-06T19:58:26.735Z,95
2023-05-06T20:03:26.773Z,95.6
2023-05-06T20:08:26.749Z,96.2
2023-05-06T20:13:26.781Z,96.8
2023-05-06T20:18:26.726Z,97
2023-05-06T20:23:26.707Z,97.6
2023-05-06T20:28:26.718Z,97.9
2023-05-06T20:33:26.721Z,97.7
2023-05-06T20:38:26.722Z,98.4
2023-05-06T20:43:26.718Z,98.4
2023-05-06T20:48:26.715Z,98.4
2023-05-06T20:53:26.681Z,98.5
2023-05-06T20:58:26.682Z,98.8
2023-05-06T21:03:26.742Z,99.3
2023-05-06T21:08:26.686Z,99.4
2023-05-06T21:13:26.723Z,99.2
2023-05-06T21:18:26.756Z,99.5
2023-05-06T21:23:26.645Z,99.8
2023-05-06T21:28:26.637Z,100
2023-05-06T21:33:26.664Z,100
2023-05-06T21:38:26.662Z,100
2023-05-06T21:43:26.637Z,100
2023-05-06T21:48:26.663Z,100
2023-05-06T21:53:26.656Z,100
2023-05-06T21:58:26.612Z,100
2023-05-06T22:03:26.673Z,100
2023-05-06T22:08:26.619Z,100
2023-05-06T22:13:26.718Z,100
2023-05-06T22:18:26.589Z,100
2023-05-06T22:23:26.589Z,100
2023-05-06T22:28:26.596Z,100
2023-05-06T22:33:26.573Z,100
2023-05-06T22:38:26.585Z,100
2023-05-06T22:43:26.617Z,100
2023-05-06T22:48:26.581Z,100
2023-05-06T22:53:26.544Z,100
2023-05-06T22:58:26.570Z,100
2023-05-06T23:03:26.564Z,100
2023-05-06T23:08:26.584Z,100
2023-05-06T23:13:26.758Z,100
2023-05-06T23:18:26.532Z,100
2023-05-06T23:23:26.538Z,100
2023-05-06T23:28:26.529Z,100
2023-05-06T23:33:26.553Z,100
2023-05-06T23:38:26.523Z,100
2023-05-06T23:43:26.512Z,100
2023-05-06T23:48:26.500Z,100
2023-05-06T23:53:26.500Z,100
2023-05-06T23:58:26.496Z,100
